aviador You're here:

LJMB Decoded Metar

MARIBOR in SLOVENIA
Report Time2018-01-16 07:00:00
UTC Time2018-01-16 07:22:02
Flight Rules vfr VFR
Wind350° at 07 kt
W.Decomp.*RWY 32: 6.2 kt HW 3.2 kt RCW
W.Rank350° ranks 2
Current wind is above 350° avg. (6.6)
Visibility9999 m
Phenomena:N/A
Clouds:Few 013 Hf
Broken 093 Hf
Expected CloudBase > 400 ft AGL from Temp-Dew spread
Ceiling9,300 ft
Temp-2°C (ISA -15)
Dew Point-3°C (93% RH)
AAT-6.9°C
QNH1007 hPa
Density Alt-725 ft
Elevation869 ft
Report Wrong Elevation
Raw Report
LJMB 160700Z 35007KT 9999 FEW013 BKN093 M02/M03 Q1007=

Extra information for LJMB:More info

Metar Taf Metar & Taf Last 4 Metars F.Rules Stats Wind Profile Meteogram Temp Stats Airport Information Weather charts Add Link Nearby VenuesMetar ALERT Operation Metar Decoded Social comments